Time;durP1;ratioP1;P1;durP2;ratioP2;P2;SDS_P1;SDS_P2;PMS_P1;PMS_P2;Temp;Humidity;BMP_temperature;BMP_pressure;BME280_temperature;BME280_humidity;BME280_pressure;Samples;Min_cycle;Max_cycle;Signal;HPM_P1;HPM_P2
2021/09/02 00:01:39;;;;;;;11.77;9.63;;;11.90;99.90;;;;;;5071646;28;20067;-76
2021/09/02 00:04:06;;;;;;;12.23;9.68;;;12.10;99.90;;;;;;5069717;28;20514;-76
2021/09/02 00:06:31;;;;;;;10.43;9.18;;;12.10;99.90;;;;;;5054975;28;20101;-76
2021/09/02 00:08:57;;;;;;;12.15;9.02;;;12.00;99.90;;;;;;5067391;28;20143;-76
2021/09/02 00:11:22;;;;;;;12.55;9.77;;;12.00;99.90;;;;;;5055028;28;20029;-75
2021/09/02 00:13:48;;;;;;;11.18;8.65;;;11.80;99.90;;;;;;5061363;28;20392;-76
2021/09/02 00:16:13;;;;;;;13.25;9.15;;;11.80;99.90;;;;;;5059663;28;20028;-76
2021/09/02 00:18:39;;;;;;;15.05;10.05;;;11.80;99.90;;;;;;5063440;28;20017;-76
2021/09/02 00:21:04;;;;;;;12.80;10.10;;;11.80;99.90;;;;;;5056996;28;20027;-77
2021/09/02 00:23:30;;;;;;;12.75;10.00;;;11.90;99.90;;;;;;5057496;28;20099;-76
2021/09/02 00:25:55;;;;;;;11.95;10.02;;;12.00;99.90;;;;;;5061097;28;20552;-76
2021/09/02 00:28:22;;;;;;;14.75;10.07;;;12.00;99.90;;;;;;5063578;28;20031;-75
2021/09/02 00:30:48;;;;;;;13.65;10.52;;;12.00;99.90;;;;;;5062837;28;20043;-75
2021/09/02 00:33:18;;;;;;;12.40;9.93;;;12.00;99.90;;;;;;5059738;28;20383;-76
2021/09/02 00:35:45;;;;;;;11.18;9.88;;;12.00;99.90;;;;;;5059672;28;20060;-76
2021/09/02 00:38:10;;;;;;;15.93;9.85;;;12.00;99.90;;;;;;5053327;28;20398;-76
2021/09/02 00:40:36;;;;;;;14.05;10.55;;;11.90;99.90;;;;;;5065124;28;20112;-76
2021/09/02 00:43:02;;;;;;;19.90;11.30;;;11.90;99.90;;;;;;5052785;28;20025;-76
2021/09/02 00:45:27;;;;;;;12.98;9.30;;;11.90;99.90;;;;;;5068464;28;20101;-76
2021/09/02 00:47:53;;;;;;;11.65;9.27;;;11.90;99.90;;;;;;5065497;28;20028;-76
2021/09/02 00:50:19;;;;;;;14.32;9.98;;;11.80;99.90;;;;;;5067141;28;20040;-77
2021/09/02 00:52:44;;;;;;;12.88;9.98;;;11.80;99.90;;;;;;5067553;28;20028;-76
2021/09/02 00:55:10;;;;;;;14.45;9.98;;;11.80;99.90;;;;;;5063811;28;20025;-75
2021/09/02 00:57:37;;;;;;;12.82;9.45;;;11.70;99.90;;;;;;5062270;28;20017;-75
2021/09/02 01:00:09;;;;;;;11.23;9.70;;;11.70;99.90;;;;;;5056517;28;20021;-75
2021/09/02 01:02:35;;;;;;;11.98;9.63;;;11.60;99.90;;;;;;5060898;28;20032;-76
2021/09/02 01:05:02;;;;;;;12.35;9.82;;;11.50;99.90;;;;;;5055671;28;20029;-75
2021/09/02 01:07:29;;;;;;;14.15;10.32;;;11.50;99.90;;;;;;5058569;28;20028;-75
2021/09/02 01:09:57;;;;;;;12.77;9.43;;;11.40;99.90;;;;;;5056942;28;20053;-76
2021/09/02 01:12:31;;;;;;;17.00;10.30;;;11.60;99.90;;;;;;5060435;28;20063;-75
2021/09/02 01:15:02;;;;;;;12.57;9.32;;;11.60;99.90;;;;;;5058875;28;20028;-75
2021/09/02 01:17:29;;;;;;;11.57;10.38;;;11.70;99.90;;;;;;5064532;28;20095;-75
2021/09/02 01:19:55;;;;;;;12.80;10.52;;;11.60;99.90;;;;;;5059294;28;20068;-76
2021/09/02 01:22:30;;;;;;;13.93;10.25;;;11.60;99.90;;;;;;5062155;28;20491;-76
2021/09/02 01:25:02;;;;;;;10.77;9.43;;;11.70;99.90;;;;;;5063248;28;20032;-75
2021/09/02 01:27:28;;;;;;;13.02;9.90;;;11.60;99.90;;;;;;5057029;28;20027;-76
2021/09/02 01:29:55;;;;;;;12.30;10.15;;;11.60;99.90;;;;;;5059035;28;20458;-75
2021/09/02 01:32:25;;;;;;;11.77;10.25;;;11.50;99.90;;;;;;5067255;28;20467;-76
2021/09/02 01:34:55;;;;;;;14.05;9.93;;;11.40;99.90;;;;;;5063954;28;20020;-76
2021/09/02 01:37:21;;;;;;;14.63;10.30;;;11.30;99.90;;;;;;5056741;28;20047;-75
2021/09/02 01:39:49;;;;;;;13.75;10.82;;;11.30;99.90;;;;;;5056593;28;20487;-76
2021/09/02 01:42:14;;;;;;;16.65;11.05;;;11.30;99.90;;;;;;5061904;28;20625;-76
2021/09/02 01:44:41;;;;;;;14.73;10.55;;;11.20;99.90;;;;;;5054350;28;20060;-76
2021/09/02 01:47:24;;;;;;;13.38;10.73;;;11.20;99.90;;;;;;5059968;28;20440;-76
2021/09/02 01:49:50;;;;;;;13.82;10.55;;;11.20;99.90;;;;;;5060389;28;20024;-76
2021/09/02 01:52:17;;;;;;;14.30;10.25;;;11.10;99.90;;;;;;5059392;28;20094;-76
2021/09/02 01:54:43;;;;;;;13.02;10.75;;;11.00;99.90;;;;;;5057885;28;20029;-76
2021/09/02 01:57:09;;;;;;;11.90;10.35;;;10.90;99.90;;;;;;5057958;28;20078;-76
2021/09/02 01:59:34;;;;;;;13.25;10.30;;;10.90;99.90;;;;;;5057939;28;20380;-75
2021/09/02 02:02:00;;;;;;;13.00;10.32;;;11.00;99.90;;;;;;5059638;28;20033;-76
2021/09/02 02:04:25;;;;;;;13.05;10.65;;;11.00;99.90;;;;;;5049755;28;20028;-76
2021/09/02 02:06:51;;;;;;;11.80;9.98;;;11.10;99.90;;;;;;5050211;28;20036;-75
2021/09/02 02:09:16;;;;;;;14.85;9.55;;;11.10;99.90;;;;;;5066847;28;20033;-76
2021/09/02 02:11:42;;;;;;;11.63;9.40;;;11.00;99.90;;;;;;5063578;28;20035;-76
2021/09/02 02:14:07;;;;;;;10.80;9.63;;;10.90;99.90;;;;;;5053385;28;20061;-75
2021/09/02 02:16:33;;;;;;;14.15;10.15;;;10.90;99.90;;;;;;5067196;28;20066;-77
2021/09/02 02:18:58;;;;;;;11.57;9.65;;;10.90;99.90;;;;;;5061961;28;20111;-77
2021/09/02 02:21:24;;;;;;;13.13;10.20;;;10.90;99.90;;;;;;5064570;28;20131;-77
2021/09/02 02:23:50;;;;;;;11.45;9.02;;;10.90;99.90;;;;;;5064622;28;20029;-75
2021/09/02 02:26:15;;;;;;;12.90;9.65;;;10.80;99.90;;;;;;5058709;28;20037;-75
2021/09/02 02:28:41;;;;;;;12.43;10.38;;;10.80;99.90;;;;;;5071782;28;20042;-75
2021/09/02 02:31:06;;;;;;;17.15;10.77;;;10.80;99.90;;;;;;5071984;28;20032;-74
2021/09/02 02:33:32;;;;;;;12.85;9.93;;;10.70;99.90;;;;;;5063974;28;20045;-76
2021/09/02 02:35:57;;;;;;;13.60;10.85;;;10.80;99.90;;;;;;5064689;28;20034;-76
2021/09/02 02:38:23;;;;;;;14.07;10.18;;;10.80;99.90;;;;;;5058744;28;20510;-75
2021/09/02 02:40:48;;;;;;;16.00;11.82;;;10.70;99.90;;;;;;5067488;28;20025;-75
2021/09/02 02:43:14;;;;;;;16.98;12.48;;;10.80;99.90;;;;;;5056260;28;20029;-76
2021/09/02 02:45:40;;;;;;;11.93;9.82;;;10.80;99.90;;;;;;5068300;28;20032;-75
2021/09/02 02:48:05;;;;;;;14.48;10.35;;;10.80;99.90;;;;;;5076718;28;20056;-75
2021/09/02 02:50:31;;;;;;;16.23;11.73;;;11.10;99.90;;;;;;5063087;28;20040;-75
2021/09/02 02:52:57;;;;;;;17.65;11.40;;;11.10;99.90;;;;;;5061789;28;20103;-76
2021/09/02 02:55:23;;;;;;;15.90;11.98;;;11.20;99.90;;;;;;5054683;28;20036;-77
2021/09/02 02:57:48;;;;;;;17.13;12.57;;;11.20;99.90;;;;;;5053715;28;20025;-77
2021/09/02 03:00:14;;;;;;;13.57;11.07;;;10.90;99.90;;;;;;5054702;28;20033;-76
2021/09/02 03:02:39;;;;;;;17.67;13.23;;;10.50;99.90;;;;;;5054568;28;20234;-76
2021/09/02 03:05:07;;;;;;;17.75;12.77;;;10.10;99.90;;;;;;5054322;28;20033;-76
2021/09/02 03:07:34;;;;;;;13.93;11.45;;;9.90;99.90;;;;;;5055149;28;20475;-76
2021/09/02 03:10:00;;;;;;;12.80;9.98;;;10.10;99.90;;;;;;5053862;28;20033;-75
2021/09/02 03:12:26;;;;;;;16.92;11.32;;;10.30;99.90;;;;;;5062930;28;20051;-76
2021/09/02 03:14:51;;;;;;;14.00;11.38;;;10.20;99.90;;;;;;5059511;28;20048;-75
2021/09/02 03:17:17;;;;;;;17.00;12.00;;;10.30;99.90;;;;;;5063806;28;20031;-76
2021/09/02 03:19:42;;;;;;;17.17;11.07;;;10.40;99.90;;;;;;5066542;28;20640;-76
2021/09/02 03:22:08;;;;;;;13.85;10.65;;;10.30;99.90;;;;;;5054357;28;20086;-75
2021/09/02 03:24:33;;;;;;;16.00;10.48;;;10.30;99.90;;;;;;5067324;28;20075;-75
2021/09/02 03:26:59;;;;;;;14.57;10.90;;;10.30;99.90;;;;;;5063569;28;20482;-76
2021/09/02 03:29:25;;;;;;;14.40;10.68;;;10.20;99.90;;;;;;5060299;28;20476;-76
2021/09/02 03:31:50;;;;;;;13.25;10.63;;;10.20;99.90;;;;;;5063501;28;20060;-76
2021/09/02 03:34:16;;;;;;;15.20;10.35;;;10.20;99.90;;;;;;5066275;28;20024;-76
2021/09/02 03:36:45;;;;;;;11.52;10.05;;;10.30;99.90;;;;;;5061854;28;20032;-76
2021/09/02 03:39:10;;;;;;;13.65;10.50;;;10.30;99.90;;;;;;5059114;28;20032;-75
2021/09/02 03:41:36;;;;;;;12.88;9.95;;;10.30;99.90;;;;;;5064615;28;20499;-75
2021/09/02 03:44:02;;;;;;;12.38;9.90;;;10.30;99.90;;;;;;5065905;28;20036;-75
2021/09/02 03:46:27;;;;;;;12.35;10.38;;;10.20;99.90;;;;;;5061752;28;20383;-77
2021/09/02 03:48:53;;;;;;;17.13;11.13;;;10.20;99.90;;;;;;5060217;28;20114;-76
2021/09/02 03:51:18;;;;;;;18.02;10.32;;;10.20;99.90;;;;;;5063237;28;20407;-75
2021/09/02 03:53:44;;;;;;;14.32;10.82;;;10.20;99.90;;;;;;5065834;28;20505;-76
2021/09/02 03:56:09;;;;;;;15.38;11.48;;;10.20;99.90;;;;;;5062632;28;20021;-76
2021/09/02 03:58:35;;;;;;;17.35;11.55;;;10.30;99.90;;;;;;5057772;28;20025;-76
2021/09/02 04:01:00;;;;;;;14.07;11.30;;;10.40;99.90;;;;;;5053696;28;20104;-76
2021/09/02 04:03:26;;;;;;;15.60;11.95;;;10.40;99.90;;;;;;5056080;28;20036;-76
2021/09/02 04:05:51;;;;;;;21.23;13.70;;;10.40;99.90;;;;;;5066990;28;20052;-77
2021/09/02 04:08:17;;;;;;;19.38;12.63;;;10.40;99.90;;;;;;5055189;28;20024;-77
2021/09/02 04:10:42;;;;;;;18.85;11.88;;;10.30;99.90;;;;;;5064513;28;20115;-77
2021/09/02 04:13:08;;;;;;;21.25;12.68;;;10.40;99.90;;;;;;5055584;28;20033;-76
2021/09/02 04:15:33;;;;;;;20.92;14.55;;;10.40;99.90;;;;;;5064052;28;20029;-76
2021/09/02 04:17:59;;;;;;;18.55;12.82;;;10.30;99.90;;;;;;5068491;28;20017;-76
2021/09/02 04:20:24;;;;;;;19.80;13.75;;;10.30;99.90;;;;;;5064501;28;20021;-77
2021/09/02 04:22:50;;;;;;;18.17;13.02;;;10.40;99.90;;;;;;5057258;28;20040;-76
2021/09/02 04:25:16;;;;;;;19.42;13.95;;;10.40;99.90;;;;;;5064165;28;20025;-75
2021/09/02 04:27:41;;;;;;;18.90;13.93;;;10.50;99.90;;;;;;5054936;28;20033;-75
2021/09/02 04:30:07;;;;;;;19.73;14.23;;;10.60;99.90;;;;;;5064614;28;20040;-76
2021/09/02 04:32:33;;;;;;;21.42;13.85;;;10.50;99.90;;;;;;5052893;28;20523;-75
2021/09/02 04:34:58;;;;;;;23.55;15.57;;;10.60;99.90;;;;;;5060159;28;20475;-74
2021/09/02 04:37:24;;;;;;;21.45;13.95;;;10.60;99.90;;;;;;5059757;28;20375;-75
2021/09/02 04:39:49;;;;;;;22.17;14.93;;;10.50;99.90;;;;;;5061913;28;20028;-74
2021/09/02 04:42:15;;;;;;;19.65;14.68;;;10.60;99.90;;;;;;5065144;28;20016;-76
2021/09/02 04:44:40;;;;;;;16.80;13.32;;;10.60;99.90;;;;;;5061410;28;20036;-77
2021/09/02 04:47:06;;;;;;;21.73;14.38;;;10.60;99.90;;;;;;5059294;28;20047;-75
2021/09/02 04:49:32;;;;;;;18.95;14.10;;;10.60;99.90;;;;;;5062974;28;20040;-76
2021/09/02 04:51:57;;;;;;;20.33;14.60;;;10.50;99.90;;;;;;5064750;28;20059;-75
2021/09/02 04:54:23;;;;;;;21.52;14.68;;;10.50;99.90;;;;;;5052281;28;20041;-75
2021/09/02 04:56:48;;;;;;;20.52;14.25;;;10.60;99.90;;;;;;5053859;28;20032;-75
2021/09/02 04:59:14;;;;;;;21.98;15.25;;;10.50;99.90;;;;;;5064464;28;20104;-76
2021/09/02 05:01:39;;;;;;;22.75;15.65;;;10.40;99.90;;;;;;5065666;28;20025;-76
2021/09/02 05:04:05;;;;;;;20.55;15.05;;;10.50;99.90;;;;;;5060259;28;20024;-75
2021/09/02 05:06:31;;;;;;;22.33;15.13;;;10.60;99.90;;;;;;5058608;28;20487;-76
2021/09/02 05:08:56;;;;;;;21.42;15.82;;;10.60;99.90;;;;;;5065372;28;20372;-77
2021/09/02 05:11:22;;;;;;;20.50;15.10;;;10.60;99.90;;;;;;5066312;28;20028;-76
2021/09/02 05:13:47;;;;;;;20.20;14.50;;;10.60;99.90;;;;;;5052085;28;20108;-76
2021/09/02 05:16:12;;;;;;;21.88;15.25;;;10.70;99.90;;;;;;5051980;28;20048;-75
2021/09/02 05:18:38;;;;;;;23.02;16.33;;;10.80;99.90;;;;;;5052240;28;20029;-76
2021/09/02 05:21:04;;;;;;;24.77;17.02;;;10.80;99.90;;;;;;5051037;28;20479;-76
2021/09/02 05:23:29;;;;;;;28.80;18.08;;;10.90;99.90;;;;;;5063838;28;20152;-76
2021/09/02 05:25:55;;;;;;;22.77;15.27;;;11.00;99.90;;;;;;5050701;28;20111;-75
2021/09/02 05:28:20;;;;;;;30.02;18.10;;;11.10;99.90;;;;;;5057414;28;20514;-75
2021/09/02 05:30:46;;;;;;;26.02;17.90;;;11.30;99.90;;;;;;5058752;28;20039;-75
2021/09/02 05:33:11;;;;;;;30.42;19.90;;;11.30;99.90;;;;;;5063934;28;20096;-75
2021/09/02 05:35:37;;;;;;;26.40;17.75;;;11.40;99.90;;;;;;5063544;28;20418;-74
2021/09/02 05:38:02;;;;;;;30.65;19.80;;;11.50;99.90;;;;;;5051980;28;20056;-75
2021/09/02 05:40:28;;;;;;;28.80;19.00;;;11.60;99.90;;;;;;5052488;28;20411;-74
2021/09/02 05:42:53;;;;;;;31.40;19.55;;;11.70;99.90;;;;;;5065666;28;20029;-75
2021/09/02 05:45:19;;;;;;;32.92;21.92;;;11.70;99.90;;;;;;5051427;28;20090;-75
2021/09/02 05:47:44;;;;;;;32.85;22.10;;;11.90;99.90;;;;;;5065568;28;20467;-75
2021/09/02 05:50:10;;;;;;;31.58;21.25;;;12.00;99.90;;;;;;5062745;28;20406;-75
2021/09/02 05:52:36;;;;;;;32.47;21.55;;;12.10;99.90;;;;;;5052369;28;20411;-74
2021/09/02 05:55:01;;;;;;;32.65;21.13;;;12.20;99.90;;;;;;5063592;28;20024;-74
2021/09/02 05:57:27;;;;;;;35.38;23.77;;;12.30;99.90;;;;;;5066661;28;20025;-75
2021/09/02 05:59:52;;;;;;;36.40;24.33;;;12.40;99.90;;;;;;5062068;28;20035;-75
2021/09/02 06:02:18;;;;;;;44.63;26.95;;;12.60;99.90;;;;;;5056987;28;20165;-75
2021/09/02 06:04:44;;;;;;;38.75;25.58;;;12.70;99.90;;;;;;5070124;28;20028;-75
2021/09/02 06:07:09;;;;;;;39.47;24.10;;;12.90;99.90;;;;;;5051831;28;20099;-76
2021/09/02 06:09:35;;;;;;;21.45;15.85;;;12.90;99.90;;;;;;5063110;28;20098;-75
2021/09/02 06:12:00;;;;;;;21.50;15.50;;;12.40;99.90;;;;;;5053263;28;20501;-75
2021/09/02 06:14:26;;;;;;;17.83;14.45;;;12.30;99.90;;;;;;5062839;28;20558;-74
2021/09/02 06:16:51;;;;;;;19.02;14.23;;;12.20;99.90;;;;;;5051030;28;20623;-74
2021/09/02 06:19:17;;;;;;;26.35;14.73;;;12.10;99.90;;;;;;5050205;28;20361;-74
2021/09/02 06:21:42;;;;;;;22.98;14.98;;;12.30;99.90;;;;;;5053458;28;20537;-75
2021/09/02 06:24:08;;;;;;;20.05;15.48;;;12.30;99.90;;;;;;5062687;28;20024;-74
2021/09/02 06:26:33;;;;;;;20.35;16.08;;;12.50;99.90;;;;;;5052010;28;20035;-74
2021/09/02 06:28:59;;;;;;;29.58;17.15;;;12.70;99.90;;;;;;5051272;28;20471;-75
2021/09/02 06:31:24;;;;;;;23.17;16.35;;;12.70;99.90;;;;;;5051258;28;20513;-74
2021/09/02 06:33:50;;;;;;;25.67;17.80;;;12.90;99.90;;;;;;5051246;28;20033;-73
2021/09/02 06:36:18;;;;;;;27.23;18.83;;;13.10;99.90;;;;;;5049715;28;20067;-74
2021/09/02 06:38:44;;;;;;;22.73;16.77;;;13.20;99.90;;;;;;5051386;28;20013;-74
2021/09/02 06:41:09;;;;;;;22.67;15.63;;;13.30;99.90;;;;;;5064729;28;20078;-75
2021/09/02 06:43:35;;;;;;;21.65;14.38;;;13.30;99.90;;;;;;5054029;28;20021;-74
2021/09/02 06:46:01;;;;;;;19.95;13.75;;;13.30;99.90;;;;;;5064783;28;20049;-74
2021/09/02 06:48:27;;;;;;;20.67;14.02;;;13.30;99.90;;;;;;5061343;28;20043;-74
2021/09/02 06:50:52;;;;;;;23.17;14.27;;;13.30;99.90;;;;;;5052205;28;20036;-75
2021/09/02 06:53:18;;;;;;;20.23;14.68;;;13.30;99.90;;;;;;5049765;28;20563;-75
2021/09/02 06:55:43;;;;;;;20.67;15.70;;;13.50;99.90;;;;;;5064167;28;20507;-74
2021/09/02 06:58:09;;;;;;;21.83;15.70;;;13.60;99.90;;;;;;5051010;28;20056;-75
2021/09/02 07:00:34;;;;;;;25.83;16.05;;;13.60;99.90;;;;;;5056529;28;20116;-74
2021/09/02 07:03:00;;;;;;;25.50;18.50;;;13.70;99.90;;;;;;5058718;28;20031;-75
2021/09/02 07:05:25;;;;;;;26.88;18.52;;;13.80;99.90;;;;;;5067772;28;20456;-71
2021/09/02 07:07:52;;;;;;;25.17;17.45;;;13.90;99.90;;;;;;5061007;28;20032;-73
2021/09/02 07:10:17;;;;;;;22.10;16.98;;;14.00;99.90;;;;;;5064604;28;20156;-75
2021/09/02 07:12:43;;;;;;;24.95;17.48;;;14.10;99.90;;;;;;5056398;28;20111;-75
2021/09/02 07:15:08;;;;;;;25.60;16.95;;;14.20;99.90;;;;;;5070559;28;20025;-75
2021/09/02 07:17:34;;;;;;;22.35;17.10;;;14.20;99.90;;;;;;5073775;28;20095;-75
2021/09/02 07:20:00;;;;;;;23.90;17.52;;;14.30;99.90;;;;;;5055484;28;20021;-75
2021/09/02 07:22:25;;;;;;;29.20;18.70;;;14.40;99.90;;;;;;5065865;28;20036;-75
2021/09/02 07:24:51;;;;;;;29.40;19.92;;;14.50;99.90;;;;;;5055734;28;20029;-75
2021/09/02 07:27:17;;;;;;;28.98;18.92;;;14.50;99.90;;;;;;5065833;28;20103;-75
2021/09/02 07:29:42;;;;;;;29.67;19.85;;;14.70;99.90;;;;;;5055913;28;20029;-75
2021/09/02 07:32:08;;;;;;;30.67;20.13;;;14.80;99.90;;;;;;5065919;28;20017;-75
2021/09/02 07:34:34;;;;;;;32.05;19.95;;;14.80;99.90;;;;;;5060148;28;20095;-75
2021/09/02 07:37:01;;;;;;;29.15;19.75;;;14.90;99.90;;;;;;5062547;28;20483;-75
2021/09/02 07:39:26;;;;;;;28.85;19.75;;;15.10;99.90;;;;;;5058977;28;20035;-75
2021/09/02 07:41:52;;;;;;;25.27;18.23;;;15.20;99.90;;;;;;5062275;28;20572;-75
2021/09/02 07:44:17;;;;;;;27.70;19.23;;;15.20;99.90;;;;;;5053584;28;20037;-74
2021/09/02 07:46:43;;;;;;;28.38;19.83;;;15.20;99.90;;;;;;5053822;28;20028;-75
2021/09/02 07:49:08;;;;;;;28.98;17.95;;;15.50;99.90;;;;;;5053694;28;20071;-75
2021/09/02 07:51:34;;;;;;;30.05;18.60;;;15.70;99.90;;;;;;5064850;28;20074;-75
2021/09/02 07:53:59;;;;;;;25.58;18.08;;;15.70;99.90;;;;;;5055265;28;20033;-75
2021/09/02 07:56:25;;;;;;;27.90;19.77;;;15.80;99.90;;;;;;5063816;28;20021;-74
2021/09/02 07:58:50;;;;;;;29.80;20.15;;;15.90;99.90;;;;;;5056902;28;20029;-77
2021/09/02 08:01:22;;;;;;;32.80;19.35;;;15.90;99.90;;;;;;5056108;28;20021;-73
2021/09/02 08:03:48;;;;;;;28.88;19.27;;;15.90;99.90;;;;;;5060142;28;20020;-73
2021/09/02 08:06:13;;;;;;;31.23;19.48;;;16.00;99.90;;;;;;5073371;28;20378;-73
2021/09/02 08:08:39;;;;;;;29.15;20.63;;;16.00;99.90;;;;;;5072128;28;20031;-73
2021/09/02 08:11:04;;;;;;;31.58;20.90;;;16.10;99.90;;;;;;5072446;28;20097;-73
2021/09/02 08:13:30;;;;;;;31.42;19.25;;;16.30;99.90;;;;;;5054832;28;20068;-73
2021/09/02 08:15:56;;;;;;;28.05;18.80;;;16.50;99.90;;;;;;5053217;28;20472;-74
2021/09/02 08:18:21;;;;;;;23.30;17.23;;;16.50;99.90;;;;;;5066530;28;20021;-74
2021/09/02 08:20:47;;;;;;;25.27;18.30;;;16.60;99.90;;;;;;5064627;28;20070;-75
2021/09/02 08:23:12;;;;;;;24.98;17.30;;;16.80;99.90;;;;;;5065694;28;20080;-75
2021/09/02 08:25:38;;;;;;;25.23;18.95;;;16.70;99.90;;;;;;5052792;28;20028;-75
2021/09/02 08:28:03;;;;;;;26.70;18.10;;;16.90;99.90;;;;;;5051851;28;20082;-75
2021/09/02 08:30:29;;;;;;;28.20;19.45;;;16.90;99.90;;;;;;5051895;28;20208;-75
2021/09/02 08:32:56;;;;;;;25.52;18.95;;;17.00;99.90;;;;;;5066186;28;20025;-75
2021/09/02 08:35:27;;;;;;;25.67;17.65;;;17.10;99.90;;;;;;5060921;28;20021;-75
2021/09/02 08:37:56;;;;;;;24.58;17.80;;;17.30;99.90;;;;;;5069711;28;20482;-75
2021/09/02 08:40:24;;;;;;;24.10;17.88;;;17.10;99.90;;;;;;5054037;28;20025;-75
2021/09/02 08:42:50;;;;;;;25.08;17.95;;;17.30;99.90;;;;;;5052821;28;20087;-75
2021/09/02 08:45:16;;;;;;;23.17;16.50;;;17.30;99.90;;;;;;5052458;28;20661;-75
2021/09/02 08:47:46;;;;;;;24.35;17.13;;;17.40;99.90;;;;;;5064668;28;20060;-76
2021/09/02 08:50:14;;;;;;;22.33;16.17;;;17.50;99.90;;;;;;5066308;28;20579;-75
2021/09/02 08:52:39;;;;;;;19.92;14.32;;;17.60;99.90;;;;;;5059236;28;20032;-75
2021/09/02 08:55:05;;;;;;;23.23;14.60;;;17.80;99.90;;;;;;5059695;28;20028;-75
2021/09/02 08:57:31;;;;;;;19.08;13.63;;;18.00;99.90;;;;;;5059588;28;20032;-75
2021/09/02 08:59:58;;;;;;;18.48;13.13;;;17.80;99.90;;;;;;5058116;28;20104;-75
2021/09/02 09:02:29;;;;;;;20.92;13.00;;;17.80;99.90;;;;;;5065770;28;20017;-75
2021/09/02 09:05:08;;;;;;;16.30;13.02;;;18.20;99.90;;;;;;5065386;28;20032;-75
2021/09/02 09:07:38;;;;;;;16.08;12.05;;;18.20;99.90;;;;;;5051076;28;20029;-75
2021/09/02 09:10:12;;;;;;;15.45;12.52;;;18.30;99.90;;;;;;5052306;28;20112;-75
2021/09/02 09:12:43;;;;;;;20.45;13.70;;;18.60;99.90;;;;;;5052025;28;20044;-75
2021/09/02 09:15:34;;;;;;;19.08;13.35;;;18.40;99.90;;;;;;5057065;28;20017;-74
2021/09/02 09:18:24;;;;;;;15.57;12.18;;;18.80;99.90;;;;;;5056949;28;20033;-76
2021/09/02 09:21:06;;;;;;;17.10;12.25;;;19.00;99.90;;;;;;5059690;28;20032;-75
2021/09/02 09:24:04;;;;;;;16.02;11.75;;;18.90;99.90;;;;;;5051978;28;20372;-75
2021/09/02 09:26:31;;;;;;;16.08;11.75;;;18.60;99.90;;;;;;5055191;28;20593;-75
2021/09/02 09:29:03;;;;;;;18.15;11.88;;;18.70;99.90;;;;;;5060160;28;20057;-75
2021/09/02 09:31:33;;;;;;;14.95;11.25;;;18.60;99.90;;;;;;5051898;28;20021;-76
2021/09/02 09:34:01;;;;;;;15.15;11.32;;;18.70;99.90;;;;;;5063953;28;20028;-76
2021/09/02 09:36:30;;;;;;;17.13;10.82;;;18.90;99.90;;;;;;5065139;28;20561;-76
2021/09/02 09:39:05;;;;;;;16.55;11.50;;;19.10;99.90;;;;;;5065267;28;20025;-75
2021/09/02 09:41:42;;;;;;;16.20;11.80;;;18.80;99.90;;;;;;5050685;28;20021;-75
2021/09/02 09:44:34;;;;;;;15.07;11.60;;;18.90;99.90;;;;;;5067753;28;20036;-76
2021/09/02 09:47:15;;;;;;;13.65;11.15;;;18.90;99.90;;;;;;5054800;28;20059;-76
2021/09/02 09:49:58;;;;;;;11.73;9.60;;;19.10;99.90;;;;;;5051690;28;20025;-75
2021/09/02 09:52:33;;;;;;;13.23;9.93;;;19.30;99.90;;;;;;5065132;28;20135;-76
2021/09/02 09:55:16;;;;;;;12.48;9.43;;;19.40;99.90;;;;;;5063050;28;20024;-75
2021/09/02 09:57:42;;;;;;;12.45;9.50;;;19.60;99.90;;;;;;5051738;28;20060;-76
2021/09/02 10:00:10;;;;;;;15.00;10.30;;;19.50;99.90;;;;;;5051636;28;20490;-75
2021/09/02 10:02:39;;;;;;;16.00;10.43;;;19.80;99.90;;;;;;5051700;28;20075;-76
2021/09/02 10:05:07;;;;;;;16.80;11.32;;;19.80;99.90;;;;;;5051283;28;20104;-75
2021/09/02 10:07:34;;;;;;;12.63;9.65;;;19.60;99.90;;;;;;5051543;28;20525;-75
2021/09/02 10:10:01;;;;;;;13.90;10.10;;;19.70;99.90;;;;;;5065053;28;20029;-75
2021/09/02 10:12:26;;;;;;;17.65;10.05;;;19.60;99.90;;;;;;5050238;28;20021;-75
2021/09/02 10:14:53;;;;;;;13.57;9.55;;;19.60;99.90;;;;;;5049792;28;20051;-76
2021/09/02 10:17:19;;;;;;;12.50;9.35;;;19.70;99.90;;;;;;5059770;28;20028;-76
2021/09/02 10:19:45;;;;;;;12.77;9.75;;;19.80;99.90;;;;;;5054905;28;20029;-75
2021/09/02 10:22:12;;;;;;;14.23;9.25;;;20.10;99.90;;;;;;5053733;28;20479;-74
2021/09/02 10:24:42;;;;;;;12.93;9.15;;;19.90;99.90;;;;;;5050900;28;20028;-74
2021/09/02 10:27:16;;;;;;;12.30;8.63;;;19.90;99.90;;;;;;5051333;28;20021;-75
2021/09/02 10:29:42;;;;;;;10.63;8.90;;;19.90;99.90;;;;;;5049768;28;20132;-74
2021/09/02 10:32:23;;;;;;;12.63;8.75;;;20.20;99.90;;;;;;5049809;28;20056;-75
2021/09/02 10:35:15;;;;;;;11.63;9.13;;;20.20;99.90;;;;;;5064503;28;20491;-74
2021/09/02 10:37:41;;;;;;;12.68;8.20;;;20.20;99.90;;;;;;5044707;28;20041;-74
2021/09/02 10:40:16;;;;;;;8.93;7.53;;;20.40;99.90;;;;;;5053810;28;20031;-75
2021/09/02 10:42:43;;;;;;;8.45;7.03;;;20.50;99.90;;;;;;5054871;28;20104;-74
2021/09/02 10:45:30;;;;;;;13.73;8.07;;;20.70;99.90;;;;;;5066286;28;20028;-75
2021/09/02 10:48:06;;;;;;;11.95;9.05;;;20.80;99.90;;;;;;5061357;28;20462;-74
2021/09/02 10:50:52;;;;;;;12.30;9.38;;;21.10;99.90;;;;;;5074881;28;20017;-74
2021/09/02 10:53:18;;;;;;;12.23;9.57;;;21.10;99.90;;;;;;5078601;28;20055;-74
2021/09/02 10:55:47;;;;;;;10.57;8.90;;;20.90;99.90;;;;;;5067974;28;20029;-74
2021/09/02 10:58:35;;;;;;;13.95;8.90;;;20.90;99.90;;;;;;5066992;28;20104;-75
2021/09/02 11:01:21;;;;;;;9.95;7.90;;;21.00;99.90;;;;;;5054643;28;20037;-75
2021/09/02 11:03:46;;;;;;;13.43;8.90;;;21.40;99.90;;;;;;5054664;28;20029;-75
2021/09/02 11:06:13;;;;;;;12.35;8.02;;;21.60;99.90;;;;;;5054415;28;20398;-74
2021/09/02 11:08:40;;;;;;;9.93;6.72;;;21.50;99.90;;;;;;5066785;28;20029;-75
2021/09/02 11:11:13;;;;;;;8.82;7.03;;;21.50;99.90;;;;;;5066044;28;20108;-75
2021/09/02 11:13:40;;;;;;;10.10;7.55;;;21.60;99.90;;;;;;5055169;28;20044;-75
2021/09/02 11:16:09;;;;;;;7.30;6.00;;;21.60;99.90;;;;;;5067325;28;20021;-75
2021/09/02 11:18:46;;;;;;;7.45;5.90;;;21.60;99.90;;;;;;5069957;28;20049;-75
2021/09/02 11:21:23;;;;;;;6.03;5.40;;;22.00;99.90;;;;;;5065210;28;20021;-74
2021/09/02 11:24:03;;;;;;;9.77;6.20;;;21.90;99.90;;;;;;5054263;28;20032;-76
2021/09/02 11:26:38;;;;;;;7.78;6.75;;;21.70;99.90;;;;;;5054190;28;20514;-75
2021/09/02 11:29:04;;;;;;;8.18;5.97;;;21.80;99.90;;;;;;5054276;28;20032;-74
2021/09/02 11:31:31;;;;;;;7.65;5.68;;;21.90;99.90;;;;;;5054189;28;20075;-75
2021/09/02 11:33:58;;;;;;;8.20;6.88;;;22.10;99.90;;;;;;5052836;28;20553;-75
2021/09/02 11:36:24;;;;;;;8.38;6.38;;;22.10;99.90;;;;;;5053803;28;20379;-74
2021/09/02 11:39:00;;;;;;;7.65;6.28;;;22.30;99.90;;;;;;5054101;28;20047;-74
2021/09/02 11:41:26;;;;;;;8.30;6.45;;;22.30;99.90;;;;;;5054091;28;20028;-75
2021/09/02 11:43:52;;;;;;;14.25;6.78;;;22.20;99.90;;;;;;5053680;28;20025;-74
2021/09/02 11:46:19;;;;;;;10.02;6.35;;;22.20;99.90;;;;;;5053728;28;20495;-75
2021/09/02 11:48:53;;;;;;;7.93;6.75;;;22.10;99.90;;;;;;5053294;28;20029;-77
2021/09/02 11:51:21;;;;;;;7.75;6.45;;;22.40;99.90;;;;;;5062903;28;20024;-75
2021/09/02 11:53:48;;;;;;;8.13;6.95;;;22.70;99.90;;;;;;5057327;28;20029;-75
2021/09/02 11:56:21;;;;;;;10.77;6.63;;;22.90;99.90;;;;;;5053500;28;20017;-75
2021/09/02 11:58:57;;;;;;;7.43;6.53;;;23.00;99.90;;;;;;5052393;28;20484;-74
2021/09/02 12:01:23;;;;;;;8.68;7.20;;;23.30;99.90;;;;;;5064503;28;20021;-75
2021/09/02 12:03:50;;;;;;;8.85;6.90;;;23.30;99.90;;;;;;5054875;28;20083;-75
2021/09/02 12:06:26;;;;;;;10.07;8.15;;;23.40;99.90;;;;;;5053150;28;20448;-75
2021/09/02 12:08:52;;;;;;;9.40;7.05;;;23.60;99.90;;;;;;5052036;28;20033;-74
2021/09/02 12:11:22;;;;;;;8.55;7.10;;;23.20;99.90;;;;;;5052037;28;20494;-75
2021/09/02 12:13:47;;;;;;;11.57;7.30;;;23.80;99.90;;;;;;5060225;28;20528;-75
2021/09/02 12:16:16;;;;;;;7.80;6.00;;;24.60;99.90;;;;;;5057540;28;20049;-75
2021/09/02 12:18:44;;;;;;;7.35;6.32;;;24.60;99.90;;;;;;5053181;28;20096;-75
2021/09/02 12:21:14;;;;;;;9.30;6.65;;;24.30;99.90;;;;;;5055894;28;20016;-75
2021/09/02 12:23:53;;;;;;;8.43;6.15;;;24.00;99.90;;;;;;5053112;28;20025;-75
2021/09/02 12:26:45;;;;;;;8.65;7.00;;;23.60;99.90;;;;;;5052775;28;20032;-75
2021/09/02 12:29:16;;;;;;;7.57;6.20;;;24.30;99.90;;;;;;5053011;28;20033;-75
2021/09/02 12:31:42;;;;;;;7.85;6.47;;;25.40;99.90;;;;;;5051889;28;20120;-75
2021/09/02 12:34:19;;;;;;;7.43;6.38;;;25.80;99.90;;;;;;5052707;28;20032;-75